sensor_id;sensor_type;location;lat;lon;timestamp;P1;durP1;ratioP1;P2;durP2;ratioP2
57593;SDS011;43423;46.510;6.686;2023-04-24T00:00:33;1.02;;;0.50;;
57593;SDS011;43423;46.510;6.686;2023-04-24T00:03:19;0.63;;;0.30;;
57593;SDS011;43423;46.510;6.686;2023-04-24T00:05:46;0.20;;;0.20;;
57593;SDS011;43423;46.510;6.686;2023-04-24T00:08:13;1.17;;;0.30;;
57593;SDS011;43423;46.510;6.686;2023-04-24T00:10:40;1.17;;;0.28;;
57593;SDS011;43423;46.510;6.686;2023-04-24T00:13:07;0.10;;;0.10;;
57593;SDS011;43423;46.510;6.686;2023-04-24T00:15:33;0.50;;;0.43;;
57593;SDS011;43423;46.510;6.686;2023-04-24T00:18:00;0.30;;;0.30;;
57593;SDS011;43423;46.510;6.686;2023-04-24T00:20:27;0.40;;;0.35;;
57593;SDS011;43423;46.510;6.686;2023-04-24T00:22:55;0.35;;;0.35;;
57593;SDS011;43423;46.510;6.686;2023-04-24T00:25:21;1.52;;;0.40;;
57593;SDS011;43423;46.510;6.686;2023-04-24T00:27:48;0.43;;;0.32;;
57593;SDS011;43423;46.510;6.686;2023-04-24T00:30:14;0.75;;;0.40;;
57593;SDS011;43423;46.510;6.686;2023-04-24T00:32:40;0.30;;;0.30;;
57593;SDS011;43423;46.510;6.686;2023-04-24T00:35:06;0.28;;;0.28;;
57593;SDS011;43423;46.510;6.686;2023-04-24T00:37:36;0.65;;;0.40;;
57593;SDS011;43423;46.510;6.686;2023-04-24T00:42:31;2.00;;;0.70;;
57593;SDS011;43423;46.510;6.686;2023-04-24T00:44:58;3.15;;;0.70;;
57593;SDS011;43423;46.510;6.686;2023-04-24T00:47:27;0.57;;;0.57;;
57593;SDS011;43423;46.510;6.686;2023-04-24T00:49:54;0.50;;;0.50;;
57593;SDS011;43423;46.510;6.686;2023-04-24T00:52:20;0.50;;;0.40;;
57593;SDS011;43423;46.510;6.686;2023-04-24T00:54:49;0.73;;;0.35;;
57593;SDS011;43423;46.510;6.686;2023-04-24T00:57:18;1.05;;;0.60;;
57593;SDS011;43423;46.510;6.686;2023-04-24T00:59:44;1.55;;;0.40;;
57593;SDS011;43423;46.510;6.686;2023-04-24T01:02:11;1.05;;;0.32;;
57593;SDS011;43423;46.510;6.686;2023-04-24T01:04:48;1.45;;;0.30;;
57593;SDS011;43423;46.510;6.686;2023-04-24T01:07:18;0.70;;;0.30;;
57593;SDS011;43423;46.510;6.686;2023-04-24T01:09:46;0.88;;;0.20;;
57593;SDS011;43423;46.510;6.686;2023-04-24T01:14:44;0.40;;;0.30;;
57593;SDS011;43423;46.510;6.686;2023-04-24T01:17:14;2.10;;;0.43;;
57593;SDS011;43423;46.510;6.686;2023-04-24T01:19:40;1.30;;;0.60;;
57593;SDS011;43423;46.510;6.686;2023-04-24T01:22:09;3.08;;;0.65;;
57593;SDS011;43423;46.510;6.686;2023-04-24T01:24:37;2.22;;;0.40;;
57593;SDS011;43423;46.510;6.686;2023-04-24T01:27:04;0.45;;;0.20;;
57593;SDS011;43423;46.510;6.686;2023-04-24T01:29:30;0.65;;;0.55;;
57593;SDS011;43423;46.510;6.686;2023-04-24T01:31:57;2.90;;;0.40;;
57593;SDS011;43423;46.510;6.686;2023-04-24T01:34:24;1.02;;;0.20;;
57593;SDS011;43423;46.510;6.686;2023-04-24T01:36:51;0.70;;;0.30;;
57593;SDS011;43423;46.510;6.686;2023-04-24T01:39:17;0.35;;;0.30;;
57593;SDS011;43423;46.510;6.686;2023-04-24T01:41:43;0.60;;;0.40;;
57593;SDS011;43423;46.510;6.686;2023-04-24T01:44:09;1.85;;;0.30;;
57593;SDS011;43423;46.510;6.686;2023-04-24T01:46:35;0.10;;;0.10;;
57593;SDS011;43423;46.510;6.686;2023-04-24T01:49:02;0.88;;;0.38;;
57593;SDS011;43423;46.510;6.686;2023-04-24T01:51:28;0.50;;;0.25;;
57593;SDS011;43423;46.510;6.686;2023-04-24T01:53:55;0.38;;;0.30;;
57593;SDS011;43423;46.510;6.686;2023-04-24T01:56:24;1.02;;;0.50;;
57593;SDS011;43423;46.510;6.686;2023-04-24T01:58:50;1.35;;;0.68;;
57593;SDS011;43423;46.510;6.686;2023-04-24T02:01:19;0.40;;;0.40;;
57593;SDS011;43423;46.510;6.686;2023-04-24T02:03:46;1.30;;;0.40;;
57593;SDS011;43423;46.510;6.686;2023-04-24T02:06:12;1.17;;;0.50;;
57593;SDS011;43423;46.510;6.686;2023-04-24T02:08:38;0.50;;;0.50;;
57593;SDS011;43423;46.510;6.686;2023-04-24T02:11:05;1.17;;;0.50;;
57593;SDS011;43423;46.510;6.686;2023-04-24T02:13:32;1.17;;;0.60;;
57593;SDS011;43423;46.510;6.686;2023-04-24T02:15:59;1.90;;;0.52;;
57593;SDS011;43423;46.510;6.686;2023-04-24T02:18:25;1.30;;;0.70;;
57593;SDS011;43423;46.510;6.686;2023-04-24T02:20:51;3.58;;;0.73;;
57593;SDS011;43423;46.510;6.686;2023-04-24T02:23:17;1.65;;;0.45;;
57593;SDS011;43423;46.510;6.686;2023-04-24T02:25:44;2.75;;;0.60;;
57593;SDS011;43423;46.510;6.686;2023-04-24T02:28:10;2.47;;;0.88;;
57593;SDS011;43423;46.510;6.686;2023-04-24T02:30:37;1.20;;;0.60;;
57593;SDS011;43423;46.510;6.686;2023-04-24T02:33:03;1.50;;;0.88;;
57593;SDS011;43423;46.510;6.686;2023-04-24T02:35:28;1.10;;;0.65;;
57593;SDS011;43423;46.510;6.686;2023-04-24T02:37:55;2.08;;;0.88;;
57593;SDS011;43423;46.510;6.686;2023-04-24T02:40:21;1.15;;;0.90;;
57593;SDS011;43423;46.510;6.686;2023-04-24T02:42:47;0.98;;;0.73;;
57593;SDS011;43423;46.510;6.686;2023-04-24T02:45:13;1.13;;;0.73;;
57593;SDS011;43423;46.510;6.686;2023-04-24T02:47:40;1.92;;;0.65;;
57593;SDS011;43423;46.510;6.686;2023-04-24T02:50:06;0.80;;;0.40;;
57593;SDS011;43423;46.510;6.686;2023-04-24T02:52:33;3.40;;;0.90;;
57593;SDS011;43423;46.510;6.686;2023-04-24T02:54:59;1.02;;;0.50;;
57593;SDS011;43423;46.510;6.686;2023-04-24T02:57:24;0.57;;;0.40;;
57593;SDS011;43423;46.510;6.686;2023-04-24T02:59:51;1.92;;;0.50;;
57593;SDS011;43423;46.510;6.686;2023-04-24T03:02:16;1.73;;;1.17;;
57593;SDS011;43423;46.510;6.686;2023-04-24T03:04:42;1.45;;;0.60;;
57593;SDS011;43423;46.510;6.686;2023-04-24T03:07:09;1.65;;;1.00;;
57593;SDS011;43423;46.510;6.686;2023-04-24T03:09:35;0.88;;;0.88;;
57593;SDS011;43423;46.510;6.686;2023-04-24T03:12:01;0.68;;;0.60;;
57593;SDS011;43423;46.510;6.686;2023-04-24T03:14:28;2.15;;;0.73;;
57593;SDS011;43423;46.510;6.686;2023-04-24T03:16:56;0.82;;;0.80;;
57593;SDS011;43423;46.510;6.686;2023-04-24T03:19:22;0.80;;;0.80;;
57593;SDS011;43423;46.510;6.686;2023-04-24T03:21:49;2.03;;;0.73;;
57593;SDS011;43423;46.510;6.686;2023-04-24T03:24:15;0.88;;;0.77;;
57593;SDS011;43423;46.510;6.686;2023-04-24T03:26:41;2.13;;;0.60;;
57593;SDS011;43423;46.510;6.686;2023-04-24T03:29:07;0.70;;;0.70;;
57593;SDS011;43423;46.510;6.686;2023-04-24T03:31:33;0.65;;;0.65;;
57593;SDS011;43423;46.510;6.686;2023-04-24T03:33:59;1.30;;;0.70;;
57593;SDS011;43423;46.510;6.686;2023-04-24T03:36:25;1.00;;;0.70;;
57593;SDS011;43423;46.510;6.686;2023-04-24T03:38:53;0.60;;;0.60;;
57593;SDS011;43423;46.510;6.686;2023-04-24T03:41:19;1.88;;;0.90;;
57593;SDS011;43423;46.510;6.686;2023-04-24T03:43:45;2.75;;;1.25;;
57593;SDS011;43423;46.510;6.686;2023-04-24T03:46:12;1.48;;;1.15;;
57593;SDS011;43423;46.510;6.686;2023-04-24T03:48:39;3.38;;;1.25;;
57593;SDS011;43423;46.510;6.686;2023-04-24T03:51:05;1.27;;;0.90;;
57593;SDS011;43423;46.510;6.686;2023-04-24T03:53:31;2.20;;;0.95;;
57593;SDS011;43423;46.510;6.686;2023-04-24T03:55:57;1.63;;;1.20;;
57593;SDS011;43423;46.510;6.686;2023-04-24T03:58:24;2.17;;;1.10;;
57593;SDS011;43423;46.510;6.686;2023-04-24T04:00:50;2.60;;;0.93;;
57593;SDS011;43423;46.510;6.686;2023-04-24T04:03:16;2.05;;;1.17;;
57593;SDS011;43423;46.510;6.686;2023-04-24T04:05:42;1.65;;;1.00;;
57593;SDS011;43423;46.510;6.686;2023-04-24T04:08:08;3.70;;;1.30;;
57593;SDS011;43423;46.510;6.686;2023-04-24T04:10:34;2.40;;;1.10;;
57593;SDS011;43423;46.510;6.686;2023-04-24T04:13:00;1.38;;;0.93;;
57593;SDS011;43423;46.510;6.686;2023-04-24T04:15:26;2.35;;;1.17;;
57593;SDS011;43423;46.510;6.686;2023-04-24T04:17:52;2.45;;;1.10;;
57593;SDS011;43423;46.510;6.686;2023-04-24T04:20:18;1.40;;;1.30;;
57593;SDS011;43423;46.510;6.686;2023-04-24T04:22:44;4.25;;;1.42;;
57593;SDS011;43423;46.510;6.686;2023-04-24T04:25:10;2.22;;;1.30;;
57593;SDS011;43423;46.510;6.686;2023-04-24T04:27:37;2.22;;;1.08;;
57593;SDS011;43423;46.510;6.686;2023-04-24T04:30:04;2.25;;;1.50;;
57593;SDS011;43423;46.510;6.686;2023-04-24T04:32:34;1.77;;;1.50;;
57593;SDS011;43423;46.510;6.686;2023-04-24T04:35:00;3.65;;;1.50;;
57593;SDS011;43423;46.510;6.686;2023-04-24T04:37:32;2.55;;;1.27;;
57593;SDS011;43423;46.510;6.686;2023-04-24T04:39:59;2.55;;;1.50;;
57593;SDS011;43423;46.510;6.686;2023-04-24T04:42:25;1.42;;;1.10;;
57593;SDS011;43423;46.510;6.686;2023-04-24T04:44:52;2.58;;;1.60;;
57593;SDS011;43423;46.510;6.686;2023-04-24T04:47:20;1.95;;;1.00;;
57593;SDS011;43423;46.510;6.686;2023-04-24T04:49:48;2.67;;;1.02;;
57593;SDS011;43423;46.510;6.686;2023-04-24T04:52:16;2.13;;;1.38;;
57593;SDS011;43423;46.510;6.686;2023-04-24T04:54:43;2.63;;;1.40;;
57593;SDS011;43423;46.510;6.686;2023-04-24T04:57:10;4.90;;;1.50;;
57593;SDS011;43423;46.510;6.686;2023-04-24T04:59:39;4.38;;;1.73;;
57593;SDS011;43423;46.510;6.686;2023-04-24T05:02:08;3.08;;;1.52;;
57593;SDS011;43423;46.510;6.686;2023-04-24T05:04:36;3.17;;;1.65;;
57593;SDS011;43423;46.510;6.686;2023-04-24T05:07:03;3.15;;;2.13;;
57593;SDS011;43423;46.510;6.686;2023-04-24T05:09:29;2.00;;;1.65;;
57593;SDS011;43423;46.510;6.686;2023-04-24T05:11:57;2.95;;;1.52;;
57593;SDS011;43423;46.510;6.686;2023-04-24T05:14:22;1.83;;;1.52;;
57593;SDS011;43423;46.510;6.686;2023-04-24T05:16:49;3.10;;;1.67;;
57593;SDS011;43423;46.510;6.686;2023-04-24T05:19:15;2.55;;;1.50;;
57593;SDS011;43423;46.510;6.686;2023-04-24T05:21:41;5.25;;;1.95;;
57593;SDS011;43423;46.510;6.686;2023-04-24T05:24:08;3.78;;;1.40;;
57593;SDS011;43423;46.510;6.686;2023-04-24T05:26:35;2.25;;;1.30;;
57593;SDS011;43423;46.510;6.686;2023-04-24T05:29:02;2.60;;;1.70;;
57593;SDS011;43423;46.510;6.686;2023-04-24T05:31:28;3.55;;;1.75;;
57593;SDS011;43423;46.510;6.686;2023-04-24T05:33:53;2.63;;;1.77;;
57593;SDS011;43423;46.510;6.686;2023-04-24T05:36:20;4.80;;;1.90;;
57593;SDS011;43423;46.510;6.686;2023-04-24T05:38:46;2.38;;;1.73;;
57593;SDS011;43423;46.510;6.686;2023-04-24T05:41:12;4.13;;;1.83;;
57593;SDS011;43423;46.510;6.686;2023-04-24T05:43:38;3.42;;;2.30;;
57593;SDS011;43423;46.510;6.686;2023-04-24T05:46:04;3.90;;;2.22;;
57593;SDS011;43423;46.510;6.686;2023-04-24T05:48:29;6.35;;;2.50;;
57593;SDS011;43423;46.510;6.686;2023-04-24T05:50:56;5.22;;;2.25;;
57593;SDS011;43423;46.510;6.686;2023-04-24T05:53:22;7.97;;;2.53;;
57593;SDS011;43423;46.510;6.686;2023-04-24T05:55:48;6.13;;;1.83;;
57593;SDS011;43423;46.510;6.686;2023-04-24T05:58:15;3.22;;;2.28;;
57593;SDS011;43423;46.510;6.686;2023-04-24T06:00:41;4.55;;;1.90;;
57593;SDS011;43423;46.510;6.686;2023-04-24T06:03:08;2.55;;;1.52;;
57593;SDS011;43423;46.510;6.686;2023-04-24T06:05:34;2.50;;;1.60;;
57593;SDS011;43423;46.510;6.686;2023-04-24T06:08:00;2.15;;;1.20;;
57593;SDS011;43423;46.510;6.686;2023-04-24T06:10:30;2.60;;;1.30;;
57593;SDS011;43423;46.510;6.686;2023-04-24T06:12:56;2.97;;;1.30;;
57593;SDS011;43423;46.510;6.686;2023-04-24T06:15:29;4.97;;;1.40;;
57593;SDS011;43423;46.510;6.686;2023-04-24T06:17:57;6.13;;;1.58;;
57593;SDS011;43423;46.510;6.686;2023-04-24T06:20:23;3.50;;;1.33;;
57593;SDS011;43423;46.510;6.686;2023-04-24T06:22:53;4.47;;;1.83;;
57593;SDS011;43423;46.510;6.686;2023-04-24T06:25:20;2.30;;;1.48;;
57593;SDS011;43423;46.510;6.686;2023-04-24T06:27:46;3.45;;;1.77;;
57593;SDS011;43423;46.510;6.686;2023-04-24T06:30:21;3.53;;;1.92;;
57593;SDS011;43423;46.510;6.686;2023-04-24T06:32:47;5.30;;;1.67;;
57593;SDS011;43423;46.510;6.686;2023-04-24T06:39:30;4.88;;;1.75;;
57593;SDS011;43423;46.510;6.686;2023-04-24T06:41:55;3.53;;;1.92;;
57593;SDS011;43423;46.510;6.686;2023-04-24T06:44:22;4.07;;;2.72;;
57593;SDS011;43423;46.510;6.686;2023-04-24T06:47:14;2.25;;;1.98;;
57593;SDS011;43423;46.510;6.686;2023-04-24T06:49:41;2.85;;;1.98;;
57593;SDS011;43423;46.510;6.686;2023-04-24T06:52:08;4.13;;;1.67;;
57593;SDS011;43423;46.510;6.686;2023-04-24T06:54:35;3.80;;;1.60;;
57593;SDS011;43423;46.510;6.686;2023-04-24T06:57:00;2.10;;;1.50;;
57593;SDS011;43423;46.510;6.686;2023-04-24T06:59:28;3.17;;;1.40;;
57593;SDS011;43423;46.510;6.686;2023-04-24T07:01:55;5.45;;;1.30;;
57593;SDS011;43423;46.510;6.686;2023-04-24T07:04:30;3.80;;;1.58;;
57593;SDS011;43423;46.510;6.686;2023-04-24T07:07:22;3.45;;;1.58;;
57593;SDS011;43423;46.510;6.686;2023-04-24T07:09:58;3.03;;;1.40;;
57593;SDS011;43423;46.510;6.686;2023-04-24T07:12:24;2.40;;;1.80;;
57593;SDS011;43423;46.510;6.686;2023-04-24T07:14:51;1.98;;;1.23;;
57593;SDS011;43423;46.510;6.686;2023-04-24T07:17:17;2.42;;;1.65;;
57593;SDS011;43423;46.510;6.686;2023-04-24T07:19:43;3.28;;;1.60;;
57593;SDS011;43423;46.510;6.686;2023-04-24T07:22:09;5.53;;;1.48;;
57593;SDS011;43423;46.510;6.686;2023-04-24T07:24:37;3.60;;;1.58;;
57593;SDS011;43423;46.510;6.686;2023-04-24T07:27:04;3.55;;;1.35;;
57593;SDS011;43423;46.510;6.686;2023-04-24T07:29:30;2.85;;;1.55;;
57593;SDS011;43423;46.510;6.686;2023-04-24T07:31:56;4.10;;;1.58;;
57593;SDS011;43423;46.510;6.686;2023-04-24T07:34:22;2.28;;;1.40;;
57593;SDS011;43423;46.510;6.686;2023-04-24T07:36:48;2.85;;;1.73;;
57593;SDS011;43423;46.510;6.686;2023-04-24T07:39:14;3.17;;;2.00;;
57593;SDS011;43423;46.510;6.686;2023-04-24T07:41:40;3.80;;;2.03;;
57593;SDS011;43423;46.510;6.686;2023-04-24T07:44:06;2.78;;;1.90;;
57593;SDS011;43423;46.510;6.686;2023-04-24T07:46:32;4.65;;;2.15;;
57593;SDS011;43423;46.510;6.686;2023-04-24T07:48:59;2.97;;;1.77;;
57593;SDS011;43423;46.510;6.686;2023-04-24T07:51:26;4.00;;;2.00;;
57593;SDS011;43423;46.510;6.686;2023-04-24T07:53:56;6.22;;;2.28;;
57593;SDS011;43423;46.510;6.686;2023-04-24T07:56:22;3.72;;;2.13;;
57593;SDS011;43423;46.510;6.686;2023-04-24T07:58:48;3.83;;;1.98;;
57593;SDS011;43423;46.510;6.686;2023-04-24T08:01:14;7.65;;;2.25;;
57593;SDS011;43423;46.510;6.686;2023-04-24T08:03:41;4.72;;;1.90;;
57593;SDS011;43423;46.510;6.686;2023-04-24T08:06:16;3.05;;;2.13;;
57593;SDS011;43423;46.510;6.686;2023-04-24T08:08:42;5.22;;;2.08;;
57593;SDS011;43423;46.510;6.686;2023-04-24T08:11:07;3.15;;;1.95;;
57593;SDS011;43423;46.510;6.686;2023-04-24T08:13:34;2.88;;;1.70;;
57593;SDS011;43423;46.510;6.686;2023-04-24T08:16:00;3.90;;;1.75;;
57593;SDS011;43423;46.510;6.686;2023-04-24T08:18:27;4.90;;;2.13;;
57593;SDS011;43423;46.510;6.686;2023-04-24T08:20:52;4.95;;;1.80;;
57593;SDS011;43423;46.510;6.686;2023-04-24T08:23:19;1.92;;;1.60;;
57593;SDS011;43423;46.510;6.686;2023-04-24T08:25:44;6.35;;;2.00;;
57593;SDS011;43423;46.510;6.686;2023-04-24T08:28:11;2.13;;;1.92;;
57593;SDS011;43423;46.510;6.686;2023-04-24T08:30:37;4.40;;;1.80;;
57593;SDS011;43423;46.510;6.686;2023-04-24T08:33:04;2.42;;;1.55;;
57593;SDS011;43423;46.510;6.686;2023-04-24T08:35:30;3.80;;;2.03;;
57593;SDS011;43423;46.510;6.686;2023-04-24T08:37:57;3.88;;;2.17;;
57593;SDS011;43423;46.510;6.686;2023-04-24T08:40:27;2.20;;;1.60;;
57593;SDS011;43423;46.510;6.686;2023-04-24T08:42:57;3.92;;;1.70;;
57593;SDS011;43423;46.510;6.686;2023-04-24T08:45:25;2.60;;;1.60;;
57593;SDS011;43423;46.510;6.686;2023-04-24T08:47:54;2.67;;;2.00;;
57593;SDS011;43423;46.510;6.686;2023-04-24T08:50:23;3.10;;;1.98;;
57593;SDS011;43423;46.510;6.686;2023-04-24T08:52:50;3.00;;;1.92;;
57593;SDS011;43423;46.510;6.686;2023-04-24T08:55:18;3.40;;;1.80;;
57593;SDS011;43423;46.510;6.686;2023-04-24T08:57:48;10.05;;;1.98;;
57593;SDS011;43423;46.510;6.686;2023-04-24T09:00:16;2.15;;;1.67;;
57593;SDS011;43423;46.510;6.686;2023-04-24T09:02:42;3.83;;;1.90;;
57593;SDS011;43423;46.510;6.686;2023-04-24T09:05:09;2.80;;;1.60;;
57593;SDS011;43423;46.510;6.686;2023-04-24T09:07:36;2.50;;;2.17;;
57593;SDS011;43423;46.510;6.686;2023-04-24T09:10:04;3.60;;;1.80;;
57593;SDS011;43423;46.510;6.686;2023-04-24T09:12:32;3.22;;;1.50;;
57593;SDS011;43423;46.510;6.686;2023-04-24T09:15:05;5.15;;;1.80;;
57593;SDS011;43423;46.510;6.686;2023-04-24T09:17:33;6.15;;;1.63;;
57593;SDS011;43423;46.510;6.686;2023-04-24T09:19:59;4.45;;;1.70;;
57593;SDS011;43423;46.510;6.686;2023-04-24T09:22:25;2.88;;;1.63;;
57593;SDS011;43423;46.510;6.686;2023-04-24T09:25:03;4.18;;;1.70;;
57593;SDS011;43423;46.510;6.686;2023-04-24T09:27:32;4.18;;;1.80;;
57593;SDS011;43423;46.510;6.686;2023-04-24T09:29:58;4.20;;;1.70;;
57593;SDS011;43423;46.510;6.686;2023-04-24T09:32:24;4.40;;;1.88;;
57593;SDS011;43423;46.510;6.686;2023-04-24T09:35:06;4.50;;;1.80;;
57593;SDS011;43423;46.510;6.686;2023-04-24T09:37:43;4.35;;;1.60;;
57593;SDS011;43423;46.510;6.686;2023-04-24T09:40:11;4.50;;;1.83;;
57593;SDS011;43423;46.510;6.686;2023-04-24T09:42:37;2.95;;;1.73;;
57593;SDS011;43423;46.510;6.686;2023-04-24T09:45:04;3.72;;;2.00;;
57593;SDS011;43423;46.510;6.686;2023-04-24T09:47:38;4.50;;;2.22;;
57593;SDS011;43423;46.510;6.686;2023-04-24T09:50:14;5.30;;;1.92;;
57593;SDS011;43423;46.510;6.686;2023-04-24T09:52:42;2.92;;;1.83;;
57593;SDS011;43423;46.510;6.686;2023-04-24T09:55:13;1.98;;;1.40;;
57593;SDS011;43423;46.510;6.686;2023-04-24T09:57:51;6.95;;;1.58;;
57593;SDS011;43423;46.510;6.686;2023-04-24T10:00:22;3.75;;;1.70;;
57593;SDS011;43423;46.510;6.686;2023-04-24T10:03:02;5.38;;;1.95;;
57593;SDS011;43423;46.510;6.686;2023-04-24T10:05:32;5.15;;;1.92;;
57593;SDS011;43423;46.510;6.686;2023-04-24T10:08:07;4.20;;;2.22;;
57593;SDS011;43423;46.510;6.686;2023-04-24T10:10:34;6.72;;;2.25;;
57593;SDS011;43423;46.510;6.686;2023-04-24T10:13:03;3.07;;;1.90;;
57593;SDS011;43423;46.510;6.686;2023-04-24T10:15:29;2.78;;;1.95;;
57593;SDS011;43423;46.510;6.686;2023-04-24T10:17:57;3.30;;;1.73;;
57593;SDS011;43423;46.510;6.686;2023-04-24T10:20:24;3.80;;;1.83;;
57593;SDS011;43423;46.510;6.686;2023-04-24T10:22:52;2.83;;;1.60;;
57593;SDS011;43423;46.510;6.686;2023-04-24T10:25:19;7.40;;;1.77;;
57593;SDS011;43423;46.510;6.686;2023-04-24T10:27:47;3.85;;;1.50;;
57593;SDS011;43423;46.510;6.686;2023-04-24T10:30:13;3.47;;;1.67;;
57593;SDS011;43423;46.510;6.686;2023-04-24T10:32:40;7.95;;;1.58;;
57593;SDS011;43423;46.510;6.686;2023-04-24T10:35:06;4.72;;;1.80;;
57593;SDS011;43423;46.510;6.686;2023-04-24T10:37:36;2.75;;;1.50;;
57593;SDS011;43423;46.510;6.686;2023-04-24T10:40:05;6.13;;;2.05;;
57593;SDS011;43423;46.510;6.686;2023-04-24T10:42:33;2.20;;;1.35;;
57593;SDS011;43423;46.510;6.686;2023-04-24T10:44:59;2.63;;;1.83;;
57593;SDS011;43423;46.510;6.686;2023-04-24T10:47:27;7.80;;;2.03;;
57593;SDS011;43423;46.510;6.686;2023-04-24T10:49:52;4.15;;;1.90;;
57593;SDS011;43423;46.510;6.686;2023-04-24T10:52:18;3.63;;;1.88;;
57593;SDS011;43423;46.510;6.686;2023-04-24T10:54:44;4.60;;;1.90;;
57593;SDS011;43423;46.510;6.686;2023-04-24T10:59:52;2.17;;;1.60;;
57593;SDS011;43423;46.510;6.686;2023-04-24T11:02:38;2.40;;;1.70;;
57593;SDS011;43423;46.510;6.686;2023-04-24T11:05:08;2.25;;;1.55;;
57593;SDS011;43423;46.510;6.686;2023-04-24T11:10:42;2.78;;;1.65;;
57593;SDS011;43423;46.510;6.686;2023-04-24T11:13:10;2.42;;;1.50;;
57593;SDS011;43423;46.510;6.686;2023-04-24T11:15:40;2.42;;;1.73;;
57593;SDS011;43423;46.510;6.686;2023-04-24T11:18:07;3.10;;;1.80;;
57593;SDS011;43423;46.510;6.686;2023-04-24T11:20:32;2.65;;;1.70;;
57593;SDS011;43423;46.510;6.686;2023-04-24T11:23:00;3.58;;;1.67;;
57593;SDS011;43423;46.510;6.686;2023-04-24T11:28:05;2.42;;;1.65;;
57593;SDS011;43423;46.510;6.686;2023-04-24T11:30:31;5.03;;;1.75;;
57593;SDS011;43423;46.510;6.686;2023-04-24T11:33:02;5.10;;;1.70;;
57593;SDS011;43423;46.510;6.686;2023-04-24T11:35:29;3.33;;;1.70;;
57593;SDS011;43423;46.510;6.686;2023-04-24T11:37:56;3.75;;;1.55;;
57593;SDS011;43423;46.510;6.686;2023-04-24T11:40:22;1.77;;;1.40;;
57593;SDS011;43423;46.510;6.686;2023-04-24T11:42:51;4.72;;;1.98;;
57593;SDS011;43423;46.510;6.686;2023-04-24T11:45:21;3.85;;;1.63;;
57593;SDS011;43423;46.510;6.686;2023-04-24T11:47:48;3.55;;;2.00;;
57593;SDS011;43423;46.510;6.686;2023-04-24T11:50:15;4.00;;;1.77;;
57593;SDS011;43423;46.510;6.686;2023-04-24T11:52:47;3.65;;;1.50;;
57593;SDS011;43423;46.510;6.686;2023-04-24T11:57:39;3.50;;;1.58;;
57593;SDS011;43423;46.510;6.686;2023-04-24T12:00:04;3.47;;;1.60;;
57593;SDS011;43423;46.510;6.686;2023-04-24T12:02:31;6.07;;;1.80;;
57593;SDS011;43423;46.510;6.686;2023-04-24T12:04:56;2.97;;;1.70;;
57593;SDS011;43423;46.510;6.686;2023-04-24T12:07:22;3.67;;;1.75;;
57593;SDS011;43423;46.510;6.686;2023-04-24T12:09:56;2.83;;;1.70;;
57593;SDS011;43423;46.510;6.686;2023-04-24T12:12:25;4.60;;;1.90;;
57593;SDS011;43423;46.510;6.686;2023-04-24T12:14:53;4.38;;;1.60;;
57593;SDS011;43423;46.510;6.686;2023-04-24T12:17:24;2.97;;;1.70;;
57593;SDS011;43423;46.510;6.686;2023-04-24T12:20:02;2.13;;;1.67;;
57593;SDS011;43423;46.510;6.686;2023-04-24T12:22:50;5.03;;;1.60;;
57593;SDS011;43423;46.510;6.686;2023-04-24T12:25:19;7.90;;;2.42;;
57593;SDS011;43423;46.510;6.686;2023-04-24T12:27:50;2.55;;;1.95;;
57593;SDS011;43423;46.510;6.686;2023-04-24T12:30:18;5.00;;;1.77;;
57593;SDS011;43423;46.510;6.686;2023-04-24T12:32:47;3.67;;;1.80;;
57593;SDS011;43423;46.510;6.686;2023-04-24T12:35:18;5.85;;;1.60;;
57593;SDS011;43423;46.510;6.686;2023-04-24T12:37:46;3.33;;;2.22;;
57593;SDS011;43423;46.510;6.686;2023-04-24T12:40:11;5.40;;;1.85;;
57593;SDS011;43423;46.510;6.686;2023-04-24T12:42:42;2.67;;;2.30;;
57593;SDS011;43423;46.510;6.686;2023-04-24T12:45:09;2.80;;;1.45;;
57593;SDS011;43423;46.510;6.686;2023-04-24T12:47:37;5.70;;;1.80;;
57593;SDS011;43423;46.510;6.686;2023-04-24T12:50:03;4.45;;;1.60;;
57593;SDS011;43423;46.510;6.686;2023-04-24T12:52:30;3.00;;;1.70;;
57593;SDS011;43423;46.510;6.686;2023-04-24T12:54:57;3.80;;;1.40;;
57593;SDS011;43423;46.510;6.686;2023-04-24T12:57:24;3.17;;;1.75;;
57593;SDS011;43423;46.510;6.686;2023-04-24T12:59:51;2.15;;;1.90;;
57593;SDS011;43423;46.510;6.686;2023-04-24T13:02:21;4.18;;;1.70;;
57593;SDS011;43423;46.510;6.686;2023-04-24T13:04:48;4.35;;;1.38;;
57593;SDS011;43423;46.510;6.686;2023-04-24T13:07:13;4.47;;;1.58;;
57593;SDS011;43423;46.510;6.686;2023-04-24T13:09:40;3.53;;;1.55;;
57593;SDS011;43423;46.510;6.686;2023-04-24T13:12:06;2.58;;;1.55;;
57593;SDS011;43423;46.510;6.686;2023-04-24T13:14:32;3.28;;;1.58;;
57593;SDS011;43423;46.510;6.686;2023-04-24T13:16:58;6.35;;;1.50;;
57593;SDS011;43423;46.510;6.686;2023-04-24T13:19:24;2.22;;;1.35;;
57593;SDS011;43423;46.510;6.686;2023-04-24T13:21:54;2.13;;;1.52;;
57593;SDS011;43423;46.510;6.686;2023-04-24T13:24:20;5.80;;;1.40;;
57593;SDS011;43423;46.510;6.686;2023-04-24T13:26:50;1.35;;;1.10;;
57593;SDS011;43423;46.510;6.686;2023-04-24T13:29:16;4.25;;;1.40;;
57593;SDS011;43423;46.510;6.686;2023-04-24T13:31:42;3.92;;;1.25;;
57593;SDS011;43423;46.510;6.686;2023-04-24T13:34:08;2.55;;;1.20;;
57593;SDS011;43423;46.510;6.686;2023-04-24T13:36:33;3.65;;;1.63;;
57593;SDS011;43423;46.510;6.686;2023-04-24T13:38:59;2.72;;;1.63;;
57593;SDS011;43423;46.510;6.686;2023-04-24T13:41:24;1.88;;;1.10;;
57593;SDS011;43423;46.510;6.686;2023-04-24T13:43:50;4.18;;;1.40;;
57593;SDS011;43423;46.510;6.686;2023-04-24T13:46:16;3.28;;;1.48;;
57593;SDS011;43423;46.510;6.686;2023-04-24T13:48:41;1.85;;;1.20;;
57593;SDS011;43423;46.510;6.686;2023-04-24T13:51:07;2.08;;;1.55;;
57593;SDS011;43423;46.510;6.686;2023-04-24T13:53:32;3.92;;;1.30;;
57593;SDS011;43423;46.510;6.686;2023-04-24T13:56:01;3.50;;;1.30;;
57593;SDS011;43423;46.510;6.686;2023-04-24T13:58:27;2.10;;;1.30;;
57593;SDS011;43423;46.510;6.686;2023-04-24T14:00:53;4.28;;;1.25;;
57593;SDS011;43423;46.510;6.686;2023-04-24T14:03:18;4.22;;;1.60;;
57593;SDS011;43423;46.510;6.686;2023-04-24T14:05:44;3.47;;;1.60;;
57593;SDS011;43423;46.510;6.686;2023-04-24T14:08:09;2.83;;;1.45;;
57593;SDS011;43423;46.510;6.686;2023-04-24T14:10:35;1.48;;;1.13;;
57593;SDS011;43423;46.510;6.686;2023-04-24T14:13:00;5.63;;;1.52;;
57593;SDS011;43423;46.510;6.686;2023-04-24T14:15:26;1.98;;;1.27;;
57593;SDS011;43423;46.510;6.686;2023-04-24T14:17:52;5.97;;;1.38;;
57593;SDS011;43423;46.510;6.686;2023-04-24T14:20:17;4.25;;;1.30;;
57593;SDS011;43423;46.510;6.686;2023-04-24T14:22:43;4.13;;;1.75;;
57593;SDS011;43423;46.510;6.686;2023-04-24T14:25:09;3.00;;;1.40;;
57593;SDS011;43423;46.510;6.686;2023-04-24T14:27:34;3.17;;;1.30;;
57593;SDS011;43423;46.510;6.686;2023-04-24T14:30:00;2.63;;;1.30;;
57593;SDS011;43423;46.510;6.686;2023-04-24T14:32:26;2.05;;;1.55;;
57593;SDS011;43423;46.510;6.686;2023-04-24T14:34:51;4.05;;;1.48;;
57593;SDS011;43423;46.510;6.686;2023-04-24T14:37:17;2.45;;;1.20;;
57593;SDS011;43423;46.510;6.686;2023-04-24T14:39:43;3.30;;;1.50;;
57593;SDS011;43423;46.510;6.686;2023-04-24T14:42:08;4.45;;;1.48;;
57593;SDS011;43423;46.510;6.686;2023-04-24T14:44:34;2.50;;;1.73;;
57593;SDS011;43423;46.510;6.686;2023-04-24T14:46:59;1.48;;;1.30;;
57593;SDS011;43423;46.510;6.686;2023-04-24T14:49:25;2.60;;;1.25;;
57593;SDS011;43423;46.510;6.686;2023-04-24T14:51:51;2.90;;;1.08;;
57593;SDS011;43423;46.510;6.686;2023-04-24T14:54:17;2.10;;;1.50;;
57593;SDS011;43423;46.510;6.686;2023-04-24T14:56:42;1.65;;;1.35;;
57593;SDS011;43423;46.510;6.686;2023-04-24T14:59:09;5.57;;;1.40;;
57593;SDS011;43423;46.510;6.686;2023-04-24T15:01:35;2.95;;;1.35;;
57593;SDS011;43423;46.510;6.686;2023-04-24T15:04:01;1.60;;;1.40;;
57593;SDS011;43423;46.510;6.686;2023-04-24T15:06:27;2.63;;;1.50;;
57593;SDS011;43423;46.510;6.686;2023-04-24T15:08:52;2.55;;;1.20;;